This is the latest recevied weather packets stored in our database for station/object VA2CPJ. If no packets are shown the sender has not sent any weather packets the latest 10 day(s).
| Time | Temp. | Humidity | Pressure | Rain* | Wind** | Luminosity | Snow |
|---|---|---|---|---|---|---|---|
| 1777772140 | 5° C | 91% | 1020.5 hPa | - | - | 0 W/m² | - |
| 1777770950 | 5° C | 91% | 1020.1 hPa | - | - | 0 W/m² | - |
| 1777770923 | 5° C | 91% | 1020.1 hPa | - | - | 0 W/m² | - |
| 1777768823 | 5.56° C | 89% | 1019.1 hPa | - | - | 0 W/m² | - |
| 1777768526 | 5.56° C | 89% | 1020.1 hPa | - | - | 0 W/m² | - |
| 1777767922 | 5.56° C | 89% | 1020.1 hPa | - | - | 2 W/m² | - |
| 1777764921 | 7.22° C | 81% | 1019.8 hPa | - | - | 1745 W/m² | - |
| 1777763801 | 7.22° C | 81% | 1019.8 hPa | - | - | - | - |
| 1777760863 | 7.22° C | 83% | 1019.8 hPa | - | - | - | - |
| 1777759819 | 6.67° C | 81% | 1019.1 hPa | - | - | - | - |
| 1777759242 | 7.22° C | 82% | 1019.1 hPa | - | - | - | - |
| 1777758358 | 6.67° C | 85% | 1019.8 hPa | - | - | - | - |
| 1777757824 | 6.67° C | 86% | 1020.1 hPa | - | - | - | - |
| 1777757142 | 6.67° C | 86% | 1019.8 hPa | - | - | - | - |
| 1777755331 | 6.67° C | 85% | 1019.8 hPa | - | - | - | - |
| 1777755042 | 6.67° C | 86% | 1019.1 hPa | - | - | - | - |
| 1777752924 | 6.67° C | 84% | 1020.1 hPa | - | - | - | - |
| 1777751769 | 7.22° C | 80% | 1019.8 hPa | - | - | - | - |
| 1777750623 | 7.78° C | 74% | 1020.1 hPa | - | - | - | - |
| 1777750221 | 7.78° C | 75% | 1019.5 hPa | - | - | - | - |
| 1777748744 | 8.89° C | 65% | 1020.1 hPa | - | - | - | - |
| 1777748173 | 8.89° C | 63% | 1020.1 hPa | - | - | - | - |
| 1777746624 | 8.89° C | 61% | 1019.1 hPa | - | - | - | - |
| 1777745128 | 8.89° C | 53% | 1019.8 hPa | - | - | - | - |
| 1777741226 | 10° C | 49% | 1019.5 hPa | - | - | - | - |
* Rain since midnight (hover to see other rain measurements)
** Current wind speed in m/s (hover to see current wind gust speed)